Time;durP1;ratioP1;P1;durP2;ratioP2;P2;SDS_P1;SDS_P2;PMS_P1;PMS_P2;Temp;Humidity;BMP_temperature;BMP_pressure;BME280_temperature;BME280_humidity;BME280_pressure;Samples;Min_cycle;Max_cycle;Signal;HPM_P1;HPM_P2
2022/07/14 00:01:45;;;;;;;;;;;;;;;15.96;100.00;102177.72;5072296;28;20041;-59
2022/07/14 00:04:10;;;;;;;;;;;;;;;15.97;100.00;102177.66;5075443;28;20398;-59
2022/07/14 00:06:35;;;;;;;;;;;;;;;15.94;100.00;102175.13;5075090;28;19963;-59
2022/07/14 00:09:01;;;;;;;;;;;;;;;15.94;100.00;102172.44;5075333;28;19985;-58
2022/07/14 00:11:26;;;;;;;;;;;;;;;15.98;100.00;102187.38;5074123;28;19923;-59
2022/07/14 00:13:52;;;;;;;;;;;;;;;15.96;100.00;102185.72;5073787;28;19922;-59
2022/07/14 00:16:17;;;;;;;;;;;;;;;15.95;100.00;102187.53;5075128;28;19996;-59
2022/07/14 00:18:46;;;;;;;;;;;;;;;15.89;100.00;102190.50;5057694;28;19913;-58
2022/07/14 00:21:11;;;;;;;;;;;;;;;15.83;100.00;102177.41;5074878;28;19940;-58
2022/07/14 00:23:37;;;;;;;;;;;;;;;15.71;100.00;102178.81;5058015;28;20371;-57
2022/07/14 00:26:03;;;;;;;;;;;;;;;15.66;100.00;102173.66;5074752;28;19912;-58
2022/07/14 00:28:28;;;;;;;;;;;;;;;15.63;100.00;102167.63;5074827;28;20011;-58
2022/07/14 00:30:53;;;;;;;;;;;;;;;15.53;100.00;102172.50;5075180;28;19927;-58
2022/07/14 00:33:18;;;;;;;;;;;;;;;15.48;100.00;102178.03;5057690;28;20445;-58
2022/07/14 00:35:44;;;;;;;;;;;;;;;15.50;100.00;102173.50;5057042;28;19928;-58
2022/07/14 00:38:09;;;;;;;;;;;;;;;15.48;100.00;102178.03;5074521;28;20015;-58
2022/07/14 00:40:34;;;;;;;;;;;;;;;15.46;100.00;102179.91;5074158;28;19927;-58
2022/07/14 00:43:00;;;;;;;;;;;;;;;15.42;100.00;102178.28;5074475;28;19924;-58
2022/07/14 00:45:26;;;;;;;;;;;;;;;15.40;100.00;102174.84;5074560;28;19920;-58
2022/07/14 00:47:51;;;;;;;;;;;;;;;15.34;100.00;102181.28;5074153;28;19928;-58
2022/07/14 00:50:17;;;;;;;;;;;;;;;15.29;100.00;102187.78;5074027;28;19930;-59
2022/07/14 00:52:44;;;;;;;;;;;;;;;15.26;100.00;102179.91;5074168;28;19916;-59
2022/07/14 00:55:10;;;;;;;;;;;;;;;15.24;100.00;102179.97;5074424;28;19928;-58
2022/07/14 00:57:35;;;;;;;;;;;;;;;15.22;100.00;102181.84;5073031;28;19921;-58
2022/07/14 01:00:01;;;;;;;;;;;;;;;15.17;100.00;102181.19;5074506;28;19923;-58
2022/07/14 01:02:26;;;;;;;;;;;;;;;15.13;100.00;102174.22;5074496;28;19948;-58
2022/07/14 01:04:51;;;;;;;;;;;;;;;15.07;100.00;102178.88;5073949;28;19928;-59
2022/07/14 01:07:18;;;;;;;;;;;;;;;15.00;100.00;102168.53;5074390;28;19920;-58
2022/07/14 01:09:43;;;;;;;;;;;;;;;14.94;100.00;102171.50;5071322;28;19920;-59
2022/07/14 01:12:09;;;;;;;;;;;;;;;14.88;100.00;102178.78;5074494;28;19927;-58
2022/07/14 01:14:35;;;;;;;;;;;;;;;14.86;100.00;102177.13;5074212;28;19916;-59
2022/07/14 01:17:01;;;;;;;;;;;;;;;14.84;100.00;102174.50;5071146;28;19961;-59
2022/07/14 01:19:26;;;;;;;;;;;;;;;14.83;100.00;102180.78;5074089;28;19920;-58
2022/07/14 01:21:52;;;;;;;;;;;;;;;14.79;100.00;102175.66;5055762;28;19920;-58
2022/07/14 01:24:17;;;;;;;;;;;;;;;14.74;100.00;102182.03;5073835;28;20667;-59
2022/07/14 01:26:43;;;;;;;;;;;;;;;14.72;100.00;102186.56;5073616;28;19921;-58
2022/07/14 01:29:08;;;;;;;;;;;;;;;14.71;100.00;102184.81;5073411;28;20387;-58
2022/07/14 01:31:33;;;;;;;;;;;;;;;14.70;100.00;102187.56;5074211;28;19912;-58
2022/07/14 01:33:58;;;;;;;;;;;;;;;14.69;100.00;102188.47;5072859;28;19921;-58
2022/07/14 01:36:24;;;;;;;;;;;;;;;14.63;100.00;102189.56;5072700;28;19916;-58
2022/07/14 01:38:51;;;;;;;;;;;;;;;14.62;100.00;102179.84;5055533;28;19917;-58
2022/07/14 01:41:17;;;;;;;;;;;;;;;14.55;100.00;102184.56;5053642;28;19920;-57
2022/07/14 01:43:42;;;;;;;;;;;;;;;14.53;100.00;102180.22;5041706;28;19920;-58
2022/07/14 01:46:08;;;;;;;;;;;;;;;14.51;100.00;102179.41;5055567;28;20015;-58
2022/07/14 01:48:33;;;;;;;;;;;;;;;14.49;100.00;102182.13;5073068;28;19968;-58
2022/07/14 01:50:59;;;;;;;;;;;;;;;14.46;100.00;102181.38;5072714;28;19970;-58
2022/07/14 01:53:24;;;;;;;;;;;;;;;14.42;100.00;102181.50;5073440;28;19944;-58
2022/07/14 01:55:49;;;;;;;;;;;;;;;14.39;100.00;102184.28;5056521;28;19920;-58
2022/07/14 01:58:14;;;;;;;;;;;;;;;14.35;100.00;102181.81;5056572;28;20250;-58
2022/07/14 02:00:40;;;;;;;;;;;;;;;14.32;100.00;102182.81;5073423;28;19917;-58
2022/07/14 02:03:05;;;;;;;;;;;;;;;14.29;100.00;102176.72;5072922;28;19920;-58
2022/07/14 02:05:30;;;;;;;;;;;;;;;14.26;100.00;102178.56;5072733;28;19993;-58
2022/07/14 02:07:56;;;;;;;;;;;;;;;14.19;100.00;102166.41;5072922;28;20062;-59
2022/07/14 02:13:04;;;;;;;;;;;;;;;14.14;100.00;102160.38;5066392;28;19981;-59
2022/07/14 02:15:30;;;;;;;;;;;;;;;14.13;100.00;102168.44;5072533;28;20363;-58
2022/07/14 02:17:55;;;;;;;;;;;;;;;14.08;100.00;102161.50;5072924;28;20276;-59
2022/07/14 02:20:20;;;;;;;;;;;;;;;14.04;100.00;102159.00;5055792;28;20394;-59
2022/07/14 02:22:45;;;;;;;;;;;;;;;14.01;100.00;102156.47;5054610;28;19974;-58
2022/07/14 02:25:12;;;;;;;;;;;;;;;13.98;100.00;102156.56;5072582;28;19922;-58
2022/07/14 02:27:37;;;;;;;;;;;;;;;13.95;100.00;102148.72;5072273;28;19949;-58
2022/07/14 02:30:03;;;;;;;;;;;;;;;13.93;100.00;102152.28;5071994;28;20020;-58
2022/07/14 02:32:31;;;;;;;;;;;;;;;13.92;100.00;102149.69;5055959;28;19924;-58
2022/07/14 02:34:56;;;;;;;;;;;;;;;13.89;100.00;102150.69;5071867;28;19916;-57
2022/07/14 02:37:21;;;;;;;;;;;;;;;13.85;100.00;102148.19;5055764;28;19916;-58
2022/07/14 02:39:48;;;;;;;;;;;;;;;13.82;100.00;102153.63;5072322;28;20325;-58
2022/07/14 02:42:13;;;;;;;;;;;;;;;13.79;100.00;102151.97;5072024;28;19926;-58
2022/07/14 02:44:38;;;;;;;;;;;;;;;13.75;100.00;102153.88;5072253;28;19924;-58
2022/07/14 02:47:03;;;;;;;;;;;;;;;13.73;100.00;102147.75;5071911;28;19924;-58
2022/07/14 02:49:29;;;;;;;;;;;;;;;13.72;100.00;102154.00;5072246;28;19970;-58
2022/07/14 02:51:54;;;;;;;;;;;;;;;13.69;100.00;102153.22;5072552;28;19927;-58
2022/07/14 02:54:19;;;;;;;;;;;;;;;13.64;100.00;102155.19;5072236;28;19924;-59
2022/07/14 02:56:45;;;;;;;;;;;;;;;13.58;100.00;102153.59;5072381;28;19917;-59
2022/07/14 02:59:10;;;;;;;;;;;;;;;13.54;100.00;102149.31;5071983;28;19916;-59
2022/07/14 03:01:35;;;;;;;;;;;;;;;13.50;100.00;102153.03;5054506;28;19917;-59
2022/07/14 03:04:00;;;;;;;;;;;;;;;13.44;100.00;102149.66;5072102;28;19986;-59
2022/07/14 03:06:26;;;;;;;;;;;;;;;13.39;100.00;102145.44;5072024;28;20292;-59
2022/07/14 03:08:51;;;;;;;;;;;;;;;13.35;100.00;102147.31;5055844;28;19947;-59
2022/07/14 03:11:16;;;;;;;;;;;;;;;13.35;100.00;102143.75;5055567;28;19964;-58
2022/07/14 03:13:41;;;;;;;;;;;;;;;13.34;100.00;102150.88;5071996;28;19917;-58
2022/07/14 03:16:09;;;;;;;;;;;;;;;13.32;100.00;102158.03;5054085;28;19920;-58
2022/07/14 03:18:34;;;;;;;;;;;;;;;13.32;100.00;102159.84;5070649;28;19924;-60
2022/07/14 03:21:00;;;;;;;;;;;;;;;13.32;100.00;102154.53;5060873;28;19923;-59
2022/07/14 03:23:25;;;;;;;;;;;;;;;13.32;100.00;102152.72;5072085;28;19916;-59
2022/07/14 03:25:50;;;;;;;;;;;;;;;13.31;100.00;102152.78;5071851;28;19923;-59
2022/07/14 03:28:15;;;;;;;;;;;;;;;13.28;100.00;102143.97;5071960;28;20367;-58
2022/07/14 03:30:41;;;;;;;;;;;;;;;13.27;100.00;102142.25;5071533;28;20411;-58
2022/07/14 03:33:06;;;;;;;;;;;;;;;13.27;100.00;102139.59;5055094;28;19956;-59
2022/07/14 03:35:32;;;;;;;;;;;;;;;13.28;100.00;102138.66;5071600;28;20338;-59
2022/07/14 03:37:57;;;;;;;;;;;;;;;13.27;100.00;102130.72;5071952;28;19973;-59
2022/07/14 03:40:22;;;;;;;;;;;;;;;13.26;100.00;102137.84;5055167;28;19927;-59
2022/07/14 03:42:47;;;;;;;;;;;;;;;13.28;100.00;102141.31;5071569;28;20388;-59
2022/07/14 03:45:13;;;;;;;;;;;;;;;13.27;100.00;102123.63;5071908;28;19927;-59
2022/07/14 03:47:38;;;;;;;;;;;;;;;13.29;100.00;102123.59;5071616;28;19936;-58
2022/07/14 03:50:03;;;;;;;;;;;;;;;13.31;100.00;102128.84;5037065;28;19922;-59
2022/07/14 03:52:29;;;;;;;;;;;;;;;13.31;100.00;102128.84;5071437;28;19924;-59
2022/07/14 03:54:54;;;;;;;;;;;;;;;13.31;100.00;102120.84;5071455;28;19916;-59
2022/07/14 03:57:19;;;;;;;;;;;;;;;13.37;100.00;102131.31;5072144;28;19923;-59
2022/07/14 03:59:44;;;;;;;;;;;;;;;13.50;100.00;102137.06;5071694;28;20011;-59
2022/07/14 04:02:10;;;;;;;;;;;;;;;13.62;100.00;102146.38;5070874;28;19921;-59
2022/07/14 04:04:36;;;;;;;;;;;;;;;13.70;100.00;102141.66;5070863;28;19920;-59
2022/07/14 04:07:01;;;;;;;;;;;;;;;13.74;100.00;102143.28;5071597;28;19924;-59
2022/07/14 04:09:27;;;;;;;;;;;;;;;13.80;100.00;102128.84;5071768;28;20368;-58
2022/07/14 04:11:52;;;;;;;;;;;;;;;13.84;100.00;102135.81;5071319;28;19920;-59
2022/07/14 04:14:17;;;;;;;;;;;;;;;13.85;100.00;102133.09;5073783;28;20033;-59
2022/07/14 04:16:42;;;;;;;;;;;;;;;13.79;100.00;102127.13;5075054;28;19924;-59
2022/07/14 04:19:08;;;;;;;;;;;;;;;13.75;100.00;102134.38;5074910;28;19917;-59
2022/07/14 04:21:34;;;;;;;;;;;;;;;13.72;100.00;102134.47;5074755;28;19996;-59
2022/07/14 04:24:00;;;;;;;;;;;;;;;13.71;100.00;102130.09;5074386;28;19923;-59
2022/07/14 04:26:25;;;;;;;;;;;;;;;13.73;100.00;102128.22;5075155;28;19916;-59
2022/07/14 04:28:50;;;;;;;;;;;;;;;13.80;100.00;102129.75;5056958;28;20027;-59
2022/07/14 04:31:15;;;;;;;;;;;;;;;13.87;100.00;102125.91;5074851;28;19917;-59
2022/07/14 04:33:41;;;;;;;;;;;;;;;13.95;100.00;102133.59;5074085;28;19916;-59
2022/07/14 04:36:07;;;;;;;;;;;;;;;14.02;100.00;102123.59;5074514;28;19913;-59
2022/07/14 04:38:33;;;;;;;;;;;;;;;14.08;100.00;102126.88;5062747;28;19982;-59
2022/07/14 04:41:00;;;;;;;;;;;;;;;14.14;100.00;102125.75;5073561;28;20325;-59
2022/07/14 04:43:25;;;;;;;;;;;;;;;14.18;100.00;102130.06;5071835;28;19913;-58
2022/07/14 04:45:50;;;;;;;;;;;;;;;14.23;100.00;102119.19;5074404;28;19924;-58
2022/07/14 04:48:16;;;;;;;;;;;;;;;14.31;100.00;102111.78;5074475;28;19920;-58
2022/07/14 04:53:25;;;;;;;;;;;;;;;14.36;100.00;102116.91;5073879;28;19928;-59
2022/07/14 04:55:50;;;;;;;;;;;;;;;14.42;100.00;102114.88;5060261;28;19916;-59
2022/07/14 04:58:16;;;;;;;;;;;;;;;14.48;100.00;102118.22;5073749;28;19920;-59
2022/07/14 05:00:41;;;;;;;;;;;;;;;14.53;100.00;102116.25;5073732;28;19951;-59
2022/07/14 05:03:06;;;;;;;;;;;;;;;14.58;100.00;102112.44;5050796;28;19955;-59
2022/07/14 05:05:31;;;;;;;;;;;;;;;14.64;100.00;102116.72;5073591;28;19928;-59
2022/07/14 05:07:57;;;;;;;;;;;;;;;14.72;100.00;102116.38;5073777;28;19925;-59
2022/07/14 05:10:22;;;;;;;;;;;;;;;14.84;100.00;102123.00;5074297;28;19942;-59
2022/07/14 05:12:47;;;;;;;;;;;;;;;14.88;100.00;102122.78;5064437;28;19924;-58
2022/07/14 05:15:12;;;;;;;;;;;;;;;14.93;100.00;102133.25;5073887;28;19921;-58
2022/07/14 05:17:38;;;;;;;;;;;;;;;15.01;100.00;102135.59;5067247;28;19920;-58
2022/07/14 05:20:03;;;;;;;;;;;;;;;15.03;100.00;102136.41;5070712;28;19920;-59
2022/07/14 05:22:34;;;;;;;;;;;;;;;15.08;100.00;102131.75;5074006;28;20014;-58
2022/07/14 05:24:59;;;;;;;;;;;;;;;15.15;100.00;102143.88;5072956;28;19940;-58
2022/07/14 05:27:24;;;;;;;;;;;;;;;15.23;100.00;102132.88;5073796;28;20449;-58
2022/07/14 05:29:50;;;;;;;;;;;;;;;15.31;100.00;102135.22;5074669;28;20383;-58
2022/07/14 05:32:16;;;;;;;;;;;;;;;15.49;100.00;102130.84;5073807;28;19965;-58
2022/07/14 05:34:42;;;;;;;;;;;;;;;15.77;100.00;102151.81;5058513;28;20046;-59
2022/07/14 05:37:08;;;;;;;;;;;;;;;16.05;100.00;102153.25;5042558;28;19999;-58
2022/07/14 05:39:33;;;;;;;;;;;;;;;16.30;100.00;102144.06;5069596;28;19920;-59
2022/07/14 05:41:58;;;;;;;;;;;;;;;16.35;100.00;102152.72;5073445;28;19923;-59
2022/07/14 05:44:24;;;;;;;;;;;;;;;16.28;100.00;102151.28;5073336;28;20053;-59
2022/07/14 05:46:49;;;;;;;;;;;;;;;16.22;100.00;102147.97;5072719;28;19928;-59
2022/07/14 05:49:14;;;;;;;;;;;;;;;16.29;100.00;102158.34;5073174;28;19924;-58
2022/07/14 05:51:39;;;;;;;;;;;;;;;16.22;100.00;102165.81;5070680;28;19925;-56
2022/07/14 05:54:05;;;;;;;;;;;;;;;16.12;100.00;102140.47;5067204;28;19920;-58
2022/07/14 05:56:30;;;;;;;;;;;;;;;16.08;100.00;102160.25;5072533;28;19917;-57
2022/07/14 05:58:55;;;;;;;;;;;;;;;15.94;100.00;102151.06;5073241;28;19967;-58
2022/07/14 06:01:21;;;;;;;;;;;;;;;15.96;100.00;102153.66;5067893;28;20008;-58
2022/07/14 06:03:54;;;;;;;;;;;;;;;16.05;100.00;102158.59;5072093;28;19920;-59
2022/07/14 06:06:20;;;;;;;;;;;;;;;16.15;100.00;102153.66;5076750;28;19924;-59
2022/07/14 06:08:45;;;;;;;;;;;;;;;16.16;100.00;102150.94;5057196;28;20434;-59
2022/07/14 06:11:11;;;;;;;;;;;;;;;16.10;100.00;102164.59;5072634;28;20003;-59
2022/07/14 06:13:36;;;;;;;;;;;;;;;16.15;100.00;102151.88;5072819;28;19916;-58
2022/07/14 06:16:01;;;;;;;;;;;;;;;16.26;100.00;102148.69;5070419;28;19917;-57
2022/07/14 06:18:27;;;;;;;;;;;;;;;16.35;100.00;102147.38;5068958;28;19959;-58
2022/07/14 06:20:53;;;;;;;;;;;;;;;16.47;100.00;102145.91;5067901;28;19920;-58
2022/07/14 06:23:18;;;;;;;;;;;;;;;16.53;100.00;102149.16;5065403;28;20015;-58
2022/07/14 06:25:43;;;;;;;;;;;;;;;16.57;100.00;102143.66;5066594;28;19917;-57
2022/07/14 06:28:08;;;;;;;;;;;;;;;16.64;100.00;102140.59;5065357;28;20440;-58
2022/07/14 06:30:34;;;;;;;;;;;;;;;16.62;99.91;102137.13;5055249;28;20439;-58
2022/07/14 06:32:59;;;;;;;;;;;;;;;16.67;100.00;102124.38;5040189;28;19920;-58
2022/07/14 06:35:25;;;;;;;;;;;;;;;16.73;98.19;102125.91;5056320;28;19916;-58
2022/07/14 06:37:53;;;;;;;;;;;;;;;16.90;97.89;102125.03;5065806;28;19921;-58
2022/07/14 06:40:19;;;;;;;;;;;;;;;16.96;97.30;102118.56;5068546;28;19916;-58
2022/07/14 06:42:44;;;;;;;;;;;;;;;16.99;96.90;102108.53;5067947;28;19924;-58
2022/07/14 06:45:10;;;;;;;;;;;;;;;17.00;95.26;102098.72;5060522;28;19921;-58
2022/07/14 06:47:35;;;;;;;;;;;;;;;16.99;96.08;102108.53;5045209;28;19920;-58
2022/07/14 06:50:00;;;;;;;;;;;;;;;17.09;96.34;102105.41;5069439;28;20302;-58
2022/07/14 06:52:26;;;;;;;;;;;;;;;17.20;96.45;102101.22;5070918;28;20003;-59
2022/07/14 06:54:51;;;;;;;;;;;;;;;17.27;92.94;102104.41;5071037;28;19943;-59
2022/07/14 06:57:17;;;;;;;;;;;;;;;17.34;93.79;102089.78;5066713;28;20201;-59
2022/07/14 06:59:43;;;;;;;;;;;;;;;17.52;92.75;102089.72;5056689;28;19966;-59
2022/07/14 07:02:08;;;;;;;;;;;;;;;17.64;93.45;102089.03;5061847;28;19913;-59
2022/07/14 07:04:33;;;;;;;;;;;;;;;17.71;94.60;102089.59;5046791;28;19974;-54
2022/07/14 07:06:58;;;;;;;;;;;;;;;17.82;95.58;102086.31;5067841;28;19916;-52
2022/07/14 07:09:24;;;;;;;;;;;;;;;17.87;92.02;102086.91;5061590;28;19924;-53
2022/07/14 07:11:49;;;;;;;;;;;;;;;17.91;90.20;102091.13;5052245;28;19921;-53
2022/07/14 07:14:15;;;;;;;;;;;;;;;17.96;90.48;102082.88;5060539;28;19920;-59
2022/07/14 07:16:40;;;;;;;;;;;;;;;18.03;87.40;102086.97;5060564;28;20299;-59
2022/07/14 07:19:05;;;;;;;;;;;;;;;18.05;88.09;102092.22;5063083;28;19917;-60
2022/07/14 07:21:30;;;;;;;;;;;;;;;18.09;87.85;102096.47;5057959;28;19921;-58
2022/07/14 07:23:56;;;;;;;;;;;;;;;18.30;84.80;102097.03;5050921;28;19923;-59
2022/07/14 07:26:24;;;;;;;;;;;;;;;18.46;84.57;102099.69;5068145;28;20379;-58
2022/07/14 07:28:50;;;;;;;;;;;;;;;18.71;83.62;102095.56;5036182;28;19954;-58
2022/07/14 07:31:16;;;;;;;;;;;;;;;18.99;81.39;102108.25;5061007;28;20015;-58
2022/07/14 07:33:41;;;;;;;;;;;;;;;19.22;80.18;102100.59;5043413;28;19960;-59
2022/07/14 07:36:07;;;;;;;;;;;;;;;19.55;76.76;102105.69;5061913;28;20360;-58
2022/07/14 07:38:32;;;;;;;;;;;;;;;19.72;76.79;102096.56;5034197;28;19916;-58
2022/07/14 07:41:00;;;;;;;;;;;;;;;19.90;75.91;102104.47;5058056;28;20595;-58
2022/07/14 07:43:26;;;;;;;;;;;;;;;19.72;73.57;102103.75;5034221;28;19912;-58
2022/07/14 07:45:51;;;;;;;;;;;;;;;19.48;76.07;102107.06;5054047;28;19934;-58
2022/07/14 07:48:16;;;;;;;;;;;;;;;19.40;77.42;102107.53;5067446;28;20742;-59
2022/07/14 07:50:42;;;;;;;;;;;;;;;19.38;75.94;102112.13;5037687;28;19945;-58
2022/07/14 07:53:08;;;;;;;;;;;;;;;19.30;76.77;102119.81;5055247;28;19917;-59
2022/07/14 07:55:33;;;;;;;;;;;;;;;19.35;78.25;102116.81;5062238;28;19939;-58
2022/07/14 07:57:59;;;;;;;;;;;;;;;19.43;77.14;102114.53;5059872;28;19967;-58
2022/07/14 08:00:25;;;;;;;;;;;;;;;19.43;77.90;102112.69;5055453;28;19924;-58
2022/07/14 08:02:52;;;;;;;;;;;;;;;19.47;77.44;102111.53;5063074;28;19917;-58
2022/07/14 08:05:19;;;;;;;;;;;;;;;19.52;76.70;102110.41;5060411;28;20394;-58
2022/07/14 08:07:44;;;;;;;;;;;;;;;19.57;76.77;102109.16;5073221;28;20011;-58
2022/07/14 08:10:09;;;;;;;;;;;;;;;19.55;77.68;102100.31;5061402;28;20012;-58
2022/07/14 08:12:34;;;;;;;;;;;;;;;19.63;78.36;102099.84;5055062;28;20244;-58
2022/07/14 08:15:00;;;;;;;;;;;;;;;19.63;78.36;102099.84;5054863;28;19916;-58
2022/07/14 08:17:25;;;;;;;;;;;;;;;19.62;76.89;102098.13;5068826;28;19965;-58
2022/07/14 08:19:50;;;;;;;;;;;;;;;19.60;74.50;102098.22;5075273;28;19982;-58
2022/07/14 08:22:25;;;;;;;;;;;;;;;19.69;75.89;102088.69;5086060;28;19959;-58
2022/07/14 08:24:50;;;;;;;;;;;;;;;19.84;74.28;102086.88;5054546;28;19913;-58
2022/07/14 08:27:16;;;;;;;;;;;;;;;19.74;75.87;102089.25;5061616;28;19928;-58
2022/07/14 08:29:42;;;;;;;;;;;;;;;19.60;75.25;102083.91;5058865;28;19924;-58
2022/07/14 08:32:07;;;;;;;;;;;;;;;19.60;74.22;102089.28;5040239;28;20342;-58
2022/07/14 08:34:32;;;;;;;;;;;;;;;19.69;73.01;102083.31;5046924;28;19917;-58
2022/07/14 08:36:58;;;;;;;;;;;;;;;19.90;68.62;102088.34;5069580;28;19928;-58
2022/07/14 08:39:24;;;;;;;;;;;;;;;20.07;64.98;102092.59;5051721;28;19928;-58
2022/07/14 08:41:51;;;;;;;;;;;;;;;20.04;61.57;102088.28;5061995;28;19921;-58
2022/07/14 08:44:16;;;;;;;;;;;;;;;20.28;57.84;102093.88;5060113;28;20306;-58
2022/07/14 08:46:42;;;;;;;;;;;;;;;20.64;56.41;102091.53;5062309;28;19956;-58
2022/07/14 08:49:07;;;;;;;;;;;;;;;21.93;52.65;102095.09;5066873;28;21316;-58
2022/07/14 08:51:33;;;;;;;;;;;;;;;23.34;45.93;102084.47;5065404;28;19921;-58
2022/07/14 08:54:00;;;;;;;;;;;;;;;24.52;40.08;102080.31;5065337;28;19967;-59
2022/07/14 08:56:26;;;;;;;;;;;;;;;25.29;38.68;102094.53;5066608;28;19912;-59
2022/07/14 08:58:51;;;;;;;;;;;;;;;25.74;37.31;102091.44;5051245;28;20296;-59
2022/07/14 09:01:17;;;;;;;;;;;;;;;26.30;37.17;102084.56;5059094;28;20487;-59
2022/07/14 09:03:42;;;;;;;;;;;;;;;26.06;38.94;102089.56;5067179;28;19916;-59
2022/07/14 09:06:07;;;;;;;;;;;;;;;25.96;40.43;102078.66;5062745;28;20380;-59
2022/07/14 09:08:51;;;;;;;;;;;;;;;26.45;38.44;102081.44;5067453;28;19924;-59
2022/07/14 09:11:17;;;;;;;;;;;;;;;26.69;37.94;102088.28;5054618;28;19916;-59
2022/07/14 09:13:43;;;;;;;;;;;;;;;26.91;36.46;102077.13;5059464;28;19917;-59
2022/07/14 09:16:22;;;;;;;;;;;;;;;26.57;39.37;102082.16;5050769;28;19940;-59
2022/07/14 09:19:07;;;;;;;;;;;;;;;26.46;41.71;102086.72;5072952;28;19927;-59
2022/07/14 09:21:33;;;;;;;;;;;;;;;26.57;40.22;102093.00;5069396;28;19916;-59
2022/07/14 09:23:59;;;;;;;;;;;;;;;26.64;40.08;102086.00;5054176;28;19923;-59
2022/07/14 09:26:24;;;;;;;;;;;;;;;27.17;39.08;102090.06;5044566;28;20383;-58
2022/07/14 09:28:50;;;;;;;;;;;;;;;27.14;38.15;102093.09;5060466;28;19974;-59
2022/07/14 09:31:23;;;;;;;;;;;;;;;26.58;36.97;102092.88;5057087;28;19917;-58
2022/07/14 09:33:53;;;;;;;;;;;;;;;26.46;39.99;102083.16;5053423;28;19917;-60
2022/07/14 09:36:29;;;;;;;;;;;;;;;26.30;39.21;102079.13;5060243;28;19936;-58
2022/07/14 09:39:05;;;;;;;;;;;;;;;26.61;37.03;102081.72;5053085;28;19917;-58
2022/07/14 09:41:32;;;;;;;;;;;;;;;27.46;34.34;102075.53;5068829;28;19917;-59
2022/07/14 09:44:13;;;;;;;;;;;;;;;28.07;31.60;102081.34;5062562;28;19936;-58
2022/07/14 09:46:42;;;;;;;;;;;;;;;27.99;33.57;102084.81;5053039;28;19921;-59
2022/07/14 09:49:08;;;;;;;;;;;;;;;28.00;32.29;102085.69;5062694;28;19920;-59
2022/07/14 09:51:33;;;;;;;;;;;;;;;26.84;33.38;102088.72;5062290;28;19969;-59
2022/07/14 09:53:58;;;;;;;;;;;;;;;26.62;33.16;102083.41;5041815;28;19920;-59
2022/07/14 09:56:24;;;;;;;;;;;;;;;27.29;35.75;102072.56;5038623;28;19991;-58
2022/07/14 09:58:54;;;;;;;;;;;;;;;28.12;31.42;102076.31;5052634;28;19940;-59
2022/07/14 10:01:20;;;;;;;;;;;;;;;28.17;31.75;102079.41;5045552;28;19925;-59
2022/07/14 10:03:46;;;;;;;;;;;;;;;28.43;30.74;102084.94;5060702;28;19927;-59
2022/07/14 10:06:12;;;;;;;;;;;;;;;28.03;37.28;102093.56;5065897;28;19916;-59
2022/07/14 10:08:43;;;;;;;;;;;;;;;27.84;36.96;102099.97;5063960;28;19936;-58
2022/07/14 10:11:08;;;;;;;;;;;;;;;27.94;36.81;102085.31;5069930;28;19924;-58
2022/07/14 10:13:35;;;;;;;;;;;;;;;27.78;37.52;102088.69;5068188;28;19966;-58
2022/07/14 10:16:01;;;;;;;;;;;;;;;27.61;36.85;102092.19;5060831;28;20393;-58
2022/07/14 10:18:26;;;;;;;;;;;;;;;27.39;37.60;102096.19;5057854;28;20011;-59
2022/07/14 10:20:53;;;;;;;;;;;;;;;26.87;40.59;102093.84;5063335;28;19982;-58
2022/07/14 10:23:19;;;;;;;;;;;;;;;26.53;41.97;102084.28;5060672;28;19926;-59
2022/07/14 10:25:51;;;;;;;;;;;;;;;26.42;45.46;102085.31;5059069;28;20007;-59
2022/07/14 10:28:17;;;;;;;;;;;;;;;26.46;43.20;102084.00;5047780;28;19921;-58
2022/07/14 10:30:48;;;;;;;;;;;;;;;26.97;40.25;102089.25;5063953;28;19920;-59
2022/07/14 10:33:28;;;;;;;;;;;;;;;26.75;41.09;102080.47;5068911;28;20102;-58
2022/07/14 10:36:03;;;;;;;;;;;;;;;27.02;42.59;102084.22;5072027;28;19913;-59
2022/07/14 10:38:37;;;;;;;;;;;;;;;27.03;41.03;102085.13;5064718;28;19917;-60
2022/07/14 10:41:05;;;;;;;;;;;;;;;26.91;40.90;102085.28;5070372;28;19955;-59
2022/07/14 10:43:45;;;;;;;;;;;;;;;26.53;42.04;102086.16;5052817;28;20327;-59
2022/07/14 10:46:15;;;;;;;;;;;;;;;26.66;41.43;102084.88;5063719;28;20015;-59
2022/07/14 10:48:48;;;;;;;;;;;;;;;26.70;45.14;102079.13;5047371;28;19917;-60
2022/07/14 10:51:27;;;;;;;;;;;;;;;26.80;41.21;102088.16;5057907;28;21546;-59
2022/07/14 10:53:59;;;;;;;;;;;;;;;26.73;39.01;102087.03;5051904;28;19913;-59
2022/07/14 10:56:25;;;;;;;;;;;;;;;26.55;39.45;102084.13;5053262;28;19923;-59
2022/07/14 10:59:10;;;;;;;;;;;;;;;27.19;38.44;102073.59;5062374;28;19921;-58
2022/07/14 11:01:35;;;;;;;;;;;;;;;27.69;39.13;102089.59;5060906;28;19916;-59
2022/07/14 11:04:01;;;;;;;;;;;;;;;27.64;38.64;102083.75;5059107;28;19934;-57
2022/07/14 11:06:27;;;;;;;;;;;;;;;27.73;38.96;102084.72;5049757;28;19947;-58
2022/07/14 11:09:11;;;;;;;;;;;;;;;27.03;39.31;102082.38;5036781;28;19935;-57
2022/07/14 11:11:37;;;;;;;;;;;;;;;26.70;42.11;102079.97;5060891;28;20364;-57
2022/07/14 11:14:12;;;;;;;;;;;;;;;27.18;38.80;102080.06;5063248;28;20004;-58
2022/07/14 11:16:53;;;;;;;;;;;;;;;27.87;38.59;102081.47;5053198;28;19919;-58
2022/07/14 11:19:31;;;;;;;;;;;;;;;28.45;36.49;102082.94;5056647;28;20444;-58
2022/07/14 11:22:10;;;;;;;;;;;;;;;28.28;37.12;102092.81;5064631;28;19916;-58
2022/07/14 11:24:35;;;;;;;;;;;;;;;28.43;35.91;102084.94;5061799;28;19917;-58
2022/07/14 11:27:19;;;;;;;;;;;;;;;27.93;37.28;102093.59;5067734;28;19924;-58
2022/07/14 11:29:45;;;;;;;;;;;;;;;28.02;36.60;102094.53;5058072;28;19967;-58
2022/07/14 11:32:27;;;;;;;;;;;;;;;27.36;37.04;102093.75;5064685;28;19964;-58
2022/07/14 11:37:54;;;;;;;;;;;;;;;27.33;36.28;102105.78;5069414;28;19928;-58
2022/07/14 11:40:39;;;;;;;;;;;;;;;27.02;37.95;102110.56;5053079;28;20330;-58
2022/07/14 11:43:22;;;;;;;;;;;;;;;27.03;37.08;102112.28;5067643;28;20386;-58
2022/07/14 11:45:58;;;;;;;;;;;;;;;27.43;36.68;102112.06;5053537;28;20375;-58
2022/07/14 11:48:29;;;;;;;;;;;;;;;27.51;36.93;102110.44;5065343;28;19925;-58
2022/07/14 11:51:17;;;;;;;;;;;;;;;27.54;36.06;102123.75;5063936;28;19970;-59
2022/07/14 11:53:42;;;;;;;;;;;;;;;27.18;36.68;102118.97;5067863;28;19919;-58
2022/07/14 11:56:08;;;;;;;;;;;;;;;27.15;37.95;102117.41;5044948;28;19920;-59
2022/07/14 11:58:35;;;;;;;;;;;;;;;26.72;40.13;102117.91;5055905;28;19921;-59
2022/07/14 12:01:01;;;;;;;;;;;;;;;26.60;39.92;102119.88;5062823;28;20273;-59
2022/07/14 12:03:27;;;;;;;;;;;;;;;26.25;40.13;102116.72;5042499;28;20010;-58
2022/07/14 12:05:53;;;;;;;;;;;;;;;26.10;41.43;102121.72;5033192;28;20168;-58
2022/07/14 12:08:23;;;;;;;;;;;;;;;26.26;40.26;102125.75;5033319;28;19917;-58
2022/07/14 12:10:51;;;;;;;;;;;;;;;26.47;41.08;102125.59;5050695;28;19936;-58
2022/07/14 12:13:19;;;;;;;;;;;;;;;26.52;40.17;102128.75;5040741;28;19970;-58
2022/07/14 12:15:45;;;;;;;;;;;;;;;26.09;40.37;102133.56;5068591;28;19958;-58
2022/07/14 12:18:11;;;;;;;;;;;;;;;26.07;41.01;102132.00;5070312;28;19920;-58
2022/07/14 12:20:44;;;;;;;;;;;;;;;26.74;39.75;102130.38;5052573;28;19913;-59
2022/07/14 12:23:10;;;;;;;;;;;;;;;27.29;38.42;102116.09;5067997;28;19920;-58
2022/07/14 12:25:37;;;;;;;;;;;;;;;26.99;39.12;102119.88;5066817;28;19957;-59
2022/07/14 12:28:04;;;;;;;;;;;;;;;26.84;40.76;102110.47;5066899;28;19927;-59
2022/07/14 12:30:45;;;;;;;;;;;;;;;27.42;39.81;102112.22;5062442;28;20960;-59
2022/07/14 12:33:14;;;;;;;;;;;;;;;27.72;35.86;102113.78;5058689;28;20403;-59
2022/07/14 12:35:40;;;;;;;;;;;;;;;27.49;37.93;102101.59;5068449;28;20007;-59
2022/07/14 12:38:06;;;;;;;;;;;;;;;27.91;35.58;102110.09;5064484;28;20337;-59